sensor_id;sensor_type;location;lat;lon;timestamp;P1;durP1;ratioP1;P2;durP2;ratioP2
21731;SDS011;11028;51.156;17.130;2023-11-21T00:04:45;9.68;;;5.53;;
21731;SDS011;11028;51.156;17.130;2023-11-21T00:12:05;15.90;;;5.47;;
21731;SDS011;11028;51.156;17.130;2023-11-21T00:19:28;10.45;;;5.38;;
21731;SDS011;11028;51.156;17.130;2023-11-21T00:26:46;11.82;;;4.88;;
21731;SDS011;11028;51.156;17.130;2023-11-21T00:34:05;15.35;;;5.53;;
21731;SDS011;11028;51.156;17.130;2023-11-21T00:41:25;15.88;;;5.18;;
21731;SDS011;11028;51.156;17.130;2023-11-21T00:48:44;12.05;;;4.28;;
21731;SDS011;11028;51.156;17.130;2023-11-21T00:56:02;8.95;;;3.67;;
21731;SDS011;11028;51.156;17.130;2023-11-21T01:03:22;14.10;;;4.35;;
21731;SDS011;11028;51.156;17.130;2023-11-21T01:10:41;11.68;;;4.32;;
21731;SDS011;11028;51.156;17.130;2023-11-21T01:17:59;11.80;;;4.00;;
21731;SDS011;11028;51.156;17.130;2023-11-21T01:25:19;7.43;;;4.45;;
21731;SDS011;11028;51.156;17.130;2023-11-21T01:32:38;12.23;;;4.28;;
21731;SDS011;11028;51.156;17.130;2023-11-21T01:39:58;9.75;;;4.70;;
21731;SDS011;11028;51.156;17.130;2023-11-21T01:47:21;10.30;;;4.32;;
21731;SDS011;11028;51.156;17.130;2023-11-21T01:54:39;12.15;;;4.65;;
21731;SDS011;11028;51.156;17.130;2023-11-21T02:01:59;12.80;;;4.45;;
21731;SDS011;11028;51.156;17.130;2023-11-21T02:09:24;8.00;;;4.13;;
21731;SDS011;11028;51.156;17.130;2023-11-21T02:16:43;12.75;;;4.10;;
21731;SDS011;11028;51.156;17.130;2023-11-21T02:24:07;8.27;;;3.80;;
21731;SDS011;11028;51.156;17.130;2023-11-21T02:31:57;15.23;;;4.20;;
21731;SDS011;11028;51.156;17.130;2023-11-21T02:39:17;9.40;;;4.07;;
21731;SDS011;11028;51.156;17.130;2023-11-21T02:46:38;7.38;;;3.35;;
21731;SDS011;11028;51.156;17.130;2023-11-21T02:53:57;12.90;;;3.60;;
21731;SDS011;11028;51.156;17.130;2023-11-21T03:01:18;6.55;;;3.67;;
21731;SDS011;11028;51.156;17.130;2023-11-21T03:08:36;11.10;;;4.72;;
21731;SDS011;11028;51.156;17.130;2023-11-21T03:15:55;10.77;;;4.45;;
21731;SDS011;11028;51.156;17.130;2023-11-21T03:23:15;13.02;;;5.93;;
21731;SDS011;11028;51.156;17.130;2023-11-21T03:30:33;16.27;;;5.97;;
21731;SDS011;11028;51.156;17.130;2023-11-21T03:37:51;17.90;;;6.47;;
21731;SDS011;11028;51.156;17.130;2023-11-21T03:45:10;28.23;;;6.88;;
21731;SDS011;11028;51.156;17.130;2023-11-21T03:52:29;17.10;;;6.82;;
21731;SDS011;11028;51.156;17.130;2023-11-21T03:59:49;17.83;;;7.03;;
21731;SDS011;11028;51.156;17.130;2023-11-21T04:07:08;21.05;;;7.30;;
21731;SDS011;11028;51.156;17.130;2023-11-21T04:14:26;16.08;;;6.45;;
21731;SDS011;11028;51.156;17.130;2023-11-21T04:21:45;15.98;;;7.15;;
21731;SDS011;11028;51.156;17.130;2023-11-21T04:29:04;16.15;;;7.38;;
21731;SDS011;11028;51.156;17.130;2023-11-21T04:36:22;19.92;;;9.15;;
21731;SDS011;11028;51.156;17.130;2023-11-21T04:43:40;13.25;;;6.40;;
21731;SDS011;11028;51.156;17.130;2023-11-21T04:51:00;19.50;;;7.50;;
21731;SDS011;11028;51.156;17.130;2023-11-21T04:58:18;11.60;;;5.65;;
21731;SDS011;11028;51.156;17.130;2023-11-21T05:05:37;14.85;;;5.78;;
21731;SDS011;11028;51.156;17.130;2023-11-21T05:12:57;11.68;;;5.82;;
21731;SDS011;11028;51.156;17.130;2023-11-21T05:20:15;13.90;;;6.70;;
21731;SDS011;11028;51.156;17.130;2023-11-21T05:27:38;8.23;;;4.40;;
21731;SDS011;11028;51.156;17.130;2023-11-21T05:34:57;8.63;;;5.10;;
21731;SDS011;11028;51.156;17.130;2023-11-21T05:42:16;9.68;;;4.93;;
21731;SDS011;11028;51.156;17.130;2023-11-21T05:49:35;12.13;;;6.28;;
21731;SDS011;11028;51.156;17.130;2023-11-21T05:56:55;9.73;;;5.95;;
21731;SDS011;11028;51.156;17.130;2023-11-21T06:04:13;13.00;;;6.53;;
21731;SDS011;11028;51.156;17.130;2023-11-21T06:11:31;16.73;;;6.75;;
21731;SDS011;11028;51.156;17.130;2023-11-21T06:18:51;12.68;;;7.28;;
21731;SDS011;11028;51.156;17.130;2023-11-21T06:26:09;14.85;;;6.20;;
21731;SDS011;11028;51.156;17.130;2023-11-21T06:33:27;14.52;;;7.22;;
21731;SDS011;11028;51.156;17.130;2023-11-21T06:40:47;13.98;;;6.82;;
21731;SDS011;11028;51.156;17.130;2023-11-21T06:48:05;19.90;;;7.60;;
21731;SDS011;11028;51.156;17.130;2023-11-21T06:55:23;15.68;;;7.45;;
21731;SDS011;11028;51.156;17.130;2023-11-21T07:02:43;24.08;;;8.13;;
21731;SDS011;11028;51.156;17.130;2023-11-21T07:10:01;16.80;;;7.85;;
21731;SDS011;11028;51.156;17.130;2023-11-21T07:17:20;18.52;;;7.72;;
21731;SDS011;11028;51.156;17.130;2023-11-21T07:24:42;15.63;;;7.30;;
21731;SDS011;11028;51.156;17.130;2023-11-21T07:32:01;17.65;;;7.50;;
21731;SDS011;11028;51.156;17.130;2023-11-21T07:39:19;14.38;;;8.02;;
21731;SDS011;11028;51.156;17.130;2023-11-21T07:46:39;20.00;;;9.40;;
21731;SDS011;11028;51.156;17.130;2023-11-21T07:53:57;16.75;;;8.18;;
21731;SDS011;11028;51.156;17.130;2023-11-21T08:01:15;19.02;;;8.82;;
21731;SDS011;11028;51.156;17.130;2023-11-21T08:08:35;14.93;;;9.15;;
21731;SDS011;11028;51.156;17.130;2023-11-21T08:15:54;16.08;;;9.15;;
21731;SDS011;11028;51.156;17.130;2023-11-21T08:23:12;15.20;;;8.38;;
21731;SDS011;11028;51.156;17.130;2023-11-21T08:30:33;14.50;;;7.72;;
21731;SDS011;11028;51.156;17.130;2023-11-21T08:37:52;20.38;;;9.00;;
21731;SDS011;11028;51.156;17.130;2023-11-21T08:45:12;23.58;;;10.52;;
21731;SDS011;11028;51.156;17.130;2023-11-21T08:52:32;14.25;;;7.18;;
21731;SDS011;11028;51.156;17.130;2023-11-21T08:59:50;14.68;;;8.27;;
21731;SDS011;11028;51.156;17.130;2023-11-21T09:07:12;15.85;;;8.23;;
21731;SDS011;11028;51.156;17.130;2023-11-21T09:14:31;21.88;;;8.77;;
21731;SDS011;11028;51.156;17.130;2023-11-21T09:21:49;19.77;;;8.25;;
21731;SDS011;11028;51.156;17.130;2023-11-21T09:29:07;18.35;;;8.57;;
21731;SDS011;11028;51.156;17.130;2023-11-21T09:36:27;15.23;;;8.07;;
21731;SDS011;11028;51.156;17.130;2023-11-21T09:43:47;12.48;;;7.25;;
21731;SDS011;11028;51.156;17.130;2023-11-21T09:51:06;15.60;;;7.35;;
21731;SDS011;11028;51.156;17.130;2023-11-21T09:58:26;15.10;;;6.72;;
21731;SDS011;11028;51.156;17.130;2023-11-21T10:05:45;31.30;;;15.02;;
21731;SDS011;11028;51.156;17.130;2023-11-21T10:13:03;27.83;;;14.20;;
21731;SDS011;11028;51.156;17.130;2023-11-21T10:20:25;38.28;;;16.63;;
21731;SDS011;11028;51.156;17.130;2023-11-21T10:27:45;34.80;;;15.20;;
21731;SDS011;11028;51.156;17.130;2023-11-21T10:35:04;33.03;;;15.05;;
21731;SDS011;11028;51.156;17.130;2023-11-21T10:42:28;41.30;;;18.60;;
21731;SDS011;11028;51.156;17.130;2023-11-21T10:49:47;41.45;;;18.70;;
21731;SDS011;11028;51.156;17.130;2023-11-21T10:57:06;41.33;;;17.98;;
21731;SDS011;11028;51.156;17.130;2023-11-21T11:04:26;40.92;;;17.00;;
21731;SDS011;11028;51.156;17.130;2023-11-21T11:11:45;38.78;;;17.63;;
21731;SDS011;11028;51.156;17.130;2023-11-21T11:19:04;38.03;;;17.13;;
21731;SDS011;11028;51.156;17.130;2023-11-21T11:26:27;34.55;;;17.13;;
21731;SDS011;11028;51.156;17.130;2023-11-21T11:33:51;36.50;;;16.98;;
21731;SDS011;11028;51.156;17.130;2023-11-21T11:41:11;33.42;;;16.30;;
21731;SDS011;11028;51.156;17.130;2023-11-21T11:48:30;31.67;;;14.63;;
21731;SDS011;11028;51.156;17.130;2023-11-21T11:55:57;32.45;;;14.80;;
21731;SDS011;11028;51.156;17.130;2023-11-21T12:03:37;30.17;;;13.50;;
21731;SDS011;11028;51.156;17.130;2023-11-21T12:10:55;31.13;;;15.48;;
21731;SDS011;11028;51.156;17.130;2023-11-21T12:18:16;30.70;;;16.75;;
21731;SDS011;11028;51.156;17.130;2023-11-21T12:25:36;30.48;;;15.10;;
21731;SDS011;11028;51.156;17.130;2023-11-21T12:32:59;26.38;;;13.18;;
21731;SDS011;11028;51.156;17.130;2023-11-21T12:40:18;27.15;;;13.82;;
21731;SDS011;11028;51.156;17.130;2023-11-21T12:47:37;25.67;;;12.23;;
21731;SDS011;11028;51.156;17.130;2023-11-21T12:54:56;20.75;;;10.80;;
21731;SDS011;11028;51.156;17.130;2023-11-21T13:02:14;22.10;;;11.32;;
21731;SDS011;11028;51.156;17.130;2023-11-21T13:09:34;26.65;;;13.50;;
21731;SDS011;11028;51.156;17.130;2023-11-21T13:16:52;28.80;;;15.05;;
21731;SDS011;11028;51.156;17.130;2023-11-21T13:24:10;22.08;;;12.18;;
21731;SDS011;11028;51.156;17.130;2023-11-21T13:31:30;25.38;;;13.90;;
21731;SDS011;11028;51.156;17.130;2023-11-21T13:38:49;19.60;;;12.30;;
21731;SDS011;11028;51.156;17.130;2023-11-21T13:46:09;17.42;;;10.50;;
21731;SDS011;11028;51.156;17.130;2023-11-21T13:53:33;17.00;;;9.90;;
21731;SDS011;11028;51.156;17.130;2023-11-21T14:00:54;21.60;;;12.68;;
21731;SDS011;11028;51.156;17.130;2023-11-21T14:08:13;28.13;;;15.65;;
21731;SDS011;11028;51.156;17.130;2023-11-21T14:15:38;27.73;;;15.13;;
21731;SDS011;11028;51.156;17.130;2023-11-21T14:22:58;31.15;;;17.27;;
21731;SDS011;11028;51.156;17.130;2023-11-21T14:30:17;25.33;;;13.10;;
21731;SDS011;11028;51.156;17.130;2023-11-21T14:37:38;29.02;;;19.25;;
21731;SDS011;11028;51.156;17.130;2023-11-21T14:44:57;14.18;;;8.05;;
21731;SDS011;11028;51.156;17.130;2023-11-21T14:52:21;16.13;;;10.52;;
21731;SDS011;11028;51.156;17.130;2023-11-21T15:00:09;13.68;;;8.55;;
21731;SDS011;11028;51.156;17.130;2023-11-21T15:07:48;18.77;;;11.90;;
21731;SDS011;11028;51.156;17.130;2023-11-21T15:15:06;26.75;;;14.60;;
21731;SDS011;11028;51.156;17.130;2023-11-21T15:22:29;25.63;;;14.63;;
21731;SDS011;11028;51.156;17.130;2023-11-21T15:29:47;17.35;;;9.80;;
21731;SDS011;11028;51.156;17.130;2023-11-21T15:37:07;20.65;;;11.40;;
21731;SDS011;11028;51.156;17.130;2023-11-21T15:44:30;23.60;;;12.52;;
21731;SDS011;11028;51.156;17.130;2023-11-21T15:51:50;23.15;;;12.05;;
21731;SDS011;11028;51.156;17.130;2023-11-21T15:59:12;22.35;;;13.13;;
21731;SDS011;11028;51.156;17.130;2023-11-21T16:06:34;20.05;;;11.55;;
21731;SDS011;11028;51.156;17.130;2023-11-21T16:13:56;24.83;;;13.75;;
21731;SDS011;11028;51.156;17.130;2023-11-21T16:21:15;26.85;;;14.75;;
21731;SDS011;11028;51.156;17.130;2023-11-21T16:28:34;22.88;;;13.30;;
21731;SDS011;11028;51.156;17.130;2023-11-21T16:35:54;29.77;;;15.73;;
21731;SDS011;11028;51.156;17.130;2023-11-21T16:43:12;26.50;;;13.57;;
21731;SDS011;11028;51.156;17.130;2023-11-21T16:50:31;24.27;;;12.48;;
21731;SDS011;11028;51.156;17.130;2023-11-21T16:57:49;21.52;;;12.63;;
21731;SDS011;11028;51.156;17.130;2023-11-21T17:05:11;25.35;;;14.80;;
21731;SDS011;11028;51.156;17.130;2023-11-21T17:12:31;26.90;;;14.95;;
21731;SDS011;11028;51.156;17.130;2023-11-21T17:19:49;29.38;;;15.25;;
21731;SDS011;11028;51.156;17.130;2023-11-21T17:27:07;26.83;;;14.45;;
21731;SDS011;11028;51.156;17.130;2023-11-21T17:34:28;25.90;;;14.88;;
21731;SDS011;11028;51.156;17.130;2023-11-21T17:41:49;35.85;;;17.70;;
21731;SDS011;11028;51.156;17.130;2023-11-21T17:49:07;38.35;;;17.60;;
21731;SDS011;11028;51.156;17.130;2023-11-21T17:56:26;36.22;;;17.73;;
21731;SDS011;11028;51.156;17.130;2023-11-21T18:03:45;36.30;;;17.90;;
21731;SDS011;11028;51.156;17.130;2023-11-21T18:11:04;32.40;;;15.93;;
21731;SDS011;11028;51.156;17.130;2023-11-21T18:18:24;35.20;;;17.98;;
21731;SDS011;11028;51.156;17.130;2023-11-21T18:25:42;33.50;;;18.23;;
21731;SDS011;11028;51.156;17.130;2023-11-21T18:33:01;39.63;;;20.50;;
21731;SDS011;11028;51.156;17.130;2023-11-21T18:40:22;42.38;;;22.33;;
21731;SDS011;11028;51.156;17.130;2023-11-21T18:47:40;50.00;;;24.63;;
21731;SDS011;11028;51.156;17.130;2023-11-21T18:54:59;45.88;;;24.15;;
21731;SDS011;11028;51.156;17.130;2023-11-21T19:02:21;49.72;;;25.38;;
21731;SDS011;11028;51.156;17.130;2023-11-21T19:09:40;40.78;;;19.92;;
21731;SDS011;11028;51.156;17.130;2023-11-21T19:17:01;52.15;;;24.55;;
21731;SDS011;11028;51.156;17.130;2023-11-21T19:24:24;56.25;;;27.25;;
21731;SDS011;11028;51.156;17.130;2023-11-21T19:31:43;71.68;;;33.55;;
21731;SDS011;11028;51.156;17.130;2023-11-21T19:39:02;48.75;;;24.40;;
21731;SDS011;11028;51.156;17.130;2023-11-21T19:46:22;51.80;;;25.83;;
21731;SDS011;11028;51.156;17.130;2023-11-21T19:53:40;45.72;;;24.40;;
21731;SDS011;11028;51.156;17.130;2023-11-21T20:01:00;45.08;;;24.45;;
21731;SDS011;11028;51.156;17.130;2023-11-21T20:08:20;51.60;;;24.83;;
21731;SDS011;11028;51.156;17.130;2023-11-21T20:15:38;53.65;;;25.55;;
21731;SDS011;11028;51.156;17.130;2023-11-21T20:22:57;53.28;;;24.15;;
21731;SDS011;11028;51.156;17.130;2023-11-21T20:30:16;44.28;;;22.80;;
21731;SDS011;11028;51.156;17.130;2023-11-21T20:37:39;66.68;;;29.70;;
21731;SDS011;11028;51.156;17.130;2023-11-21T20:44:57;44.22;;;22.55;;
21731;SDS011;11028;51.156;17.130;2023-11-21T20:52:17;45.78;;;21.25;;
21731;SDS011;11028;51.156;17.130;2023-11-21T20:59:35;53.63;;;22.35;;
21731;SDS011;11028;51.156;17.130;2023-11-21T21:06:53;48.78;;;20.65;;
21731;SDS011;11028;51.156;17.130;2023-11-21T21:14:16;41.05;;;19.85;;
21731;SDS011;11028;51.156;17.130;2023-11-21T21:21:35;45.22;;;20.92;;
21731;SDS011;11028;51.156;17.130;2023-11-21T21:28:53;46.22;;;20.95;;
21731;SDS011;11028;51.156;17.130;2023-11-21T21:36:13;45.20;;;23.60;;
21731;SDS011;11028;51.156;17.130;2023-11-21T21:43:34;47.50;;;23.67;;
21731;SDS011;11028;51.156;17.130;2023-11-21T21:50:52;60.30;;;25.95;;
21731;SDS011;11028;51.156;17.130;2023-11-21T21:58:13;54.88;;;27.05;;
21731;SDS011;11028;51.156;17.130;2023-11-21T22:05:31;60.72;;;29.00;;
21731;SDS011;11028;51.156;17.130;2023-11-21T22:12:50;67.82;;;28.77;;
21731;SDS011;11028;51.156;17.130;2023-11-21T22:20:10;63.05;;;28.23;;
21731;SDS011;11028;51.156;17.130;2023-11-21T22:27:28;59.55;;;28.83;;
21731;SDS011;11028;51.156;17.130;2023-11-21T22:34:47;63.25;;;27.10;;
21731;SDS011;11028;51.156;17.130;2023-11-21T22:42:07;63.42;;;27.50;;
21731;SDS011;11028;51.156;17.130;2023-11-21T22:49:25;44.30;;;22.60;;
21731;SDS011;11028;51.156;17.130;2023-11-21T22:56:44;51.22;;;23.10;;
21731;SDS011;11028;51.156;17.130;2023-11-21T23:04:05;59.10;;;27.48;;
21731;SDS011;11028;51.156;17.130;2023-11-21T23:11:32;59.05;;;27.00;;
21731;SDS011;11028;51.156;17.130;2023-11-21T23:18:51;56.38;;;24.98;;
21731;SDS011;11028;51.156;17.130;2023-11-21T23:26:14;56.90;;;27.33;;
21731;SDS011;11028;51.156;17.130;2023-11-21T23:33:35;56.33;;;26.38;;
21731;SDS011;11028;51.156;17.130;2023-11-21T23:40:53;55.17;;;25.98;;
21731;SDS011;11028;51.156;17.130;2023-11-21T23:48:13;60.88;;;28.50;;
21731;SDS011;11028;51.156;17.130;2023-11-21T23:55:32;64.97;;;27.60;;
